Time;durP1;ratioP1;P1;durP2;ratioP2;P2;SDS_P1;SDS_P2;PMS_P1;PMS_P2;Temp;Humidity;BMP_temperature;BMP_pressure;BME280_temperature;BME280_humidity;BME280_pressure;Samples;Min_cycle;Max_cycle;Signal;HPM_P1;HPM_P2
2022/06/29 00:02:40;;;;;;;7.60;4.00;;;;;;;23.36;77.06;100011.78;6302748;28;20040;-70
2022/06/29 00:05:41;;;;;;;;;;;;;;;23.32;78.99;100012.13;6303236;28;20280;-70
2022/06/29 00:08:41;;;;;;;6.13;4.28;;;;;;;23.31;78.07;100007.00;6320813;28;20392;-70
2022/06/29 00:11:42;;;;;;;6.23;3.80;;;;;;;23.31;79.66;100010.50;6302522;28;20047;-70
2022/06/29 00:14:43;;;;;;;6.18;3.90;;;;;;;23.30;80.15;100018.63;6269623;28;20043;-71
2022/06/29 00:17:48;;;;;;;6.78;3.78;;;;;;;23.28;79.66;100018.81;6286358;28;20067;-71
2022/06/29 00:20:49;;;;;;;8.10;4.40;;;;;;;23.26;79.91;100020.00;6302552;28;20050;-70
2022/06/29 00:23:52;;;;;;;5.75;3.80;;;;;;;23.22;79.91;100018.69;6286066;28;20478;-70
2022/06/29 00:26:55;;;;;;;7.55;4.40;;;;;;;23.10;80.43;100016.47;6302815;28;20040;-71
2022/06/29 00:29:59;;;;;;;12.18;5.15;;;;;;;23.04;80.91;100017.16;6303120;28;20069;-72
2022/06/29 00:33:00;;;;;;;6.80;3.90;;;;;;;23.00;81.27;100029.13;6302885;28;20048;-71
2022/06/29 00:36:01;;;;;;;4.88;3.60;;;;;;;23.00;81.59;100023.81;6269377;28;20040;-71
2022/06/29 00:39:02;;;;;;;6.03;4.20;;;;;;;22.86;82.42;100016.56;6285762;28;20043;-70
2022/06/29 00:42:04;;;;;;;6.93;4.23;;;;;;;22.87;82.89;100016.38;6320372;28;20048;-71
2022/06/29 00:45:05;;;;;;;9.75;4.20;;;;;;;22.85;82.93;100014.88;6302354;28;20278;-71
2022/06/29 00:48:07;;;;;;;4.97;3.60;;;;;;;22.83;83.83;100017.72;6320205;28;20402;-71
2022/06/29 00:51:11;;;;;;;7.22;3.80;;;;;;;22.78;84.14;100021.91;6302220;28;20040;-70
2022/06/29 00:54:22;;;;;;;6.28;4.00;;;;;;;22.75;84.94;100020.41;6325108;28;20115;-71
2022/06/29 00:57:26;;;;;;;5.35;4.22;;;;;;;22.77;86.06;100030.88;6325032;28;20412;-70
2022/06/29 01:00:27;;;;;;;9.10;4.38;;;;;;;22.71;85.57;100022.63;6306711;28;20146;-70
2022/06/29 01:03:28;;;;;;;7.22;3.58;;;;;;;22.67;85.68;100017.78;6325068;28;20418;-71
2022/06/29 01:06:29;;;;;;;9.18;4.28;;;;;;;22.63;85.92;100014.69;6290235;28;20484;-71
2022/06/29 01:09:30;;;;;;;4.70;3.67;;;;;;;22.61;85.99;100014.03;6290193;28;20051;-71
2022/06/29 01:12:31;;;;;;;5.50;3.70;;;;;;;22.60;86.27;100007.03;6306759;28;20071;-71
2022/06/29 01:15:32;;;;;;;4.55;3.83;;;;;;;22.54;87.15;100007.72;6324702;28;20620;-71
2022/06/29 01:18:33;;;;;;;15.47;3.80;;;;;;;22.56;88.06;100007.56;6289883;28;20051;-72
2022/06/29 01:21:38;;;;;;;9.13;3.90;;;;;;;22.50;87.78;99999.25;6306448;28;20036;-70
2022/06/29 01:24:41;;;;;;;6.43;3.90;;;;;;;22.62;86.71;99997.03;6324887;28;20044;-71
2022/06/29 01:27:42;;;;;;;4.43;3.88;;;;;;;22.70;85.96;99988.22;6324379;28;20036;-71
2022/06/29 01:30:43;;;;;;;6.90;3.60;;;;;;;22.65;86.59;99985.22;6324223;28;20486;-71
2022/06/29 01:33:48;;;;;;;9.85;4.10;;;;;;;22.52;87.71;99986.63;6324280;28;20110;-71
2022/06/29 01:36:49;;;;;;;7.90;3.80;;;;;;;22.48;87.91;99979.97;6324174;28;20040;-71
2022/06/29 01:39:49;;;;;;;5.70;4.30;;;;;;;22.53;88.18;99982.16;6306081;28;20376;-70
2022/06/29 01:42:51;;;;;;;5.47;4.20;;;;;;;22.53;88.00;99976.84;6306153;28;20497;-70
2022/06/29 01:45:52;;;;;;;8.00;4.43;;;;;;;22.50;89.23;99980.63;6305750;28;20056;-71
2022/06/29 01:48:53;;;;;;;10.60;4.10;;;;;;;22.44;88.45;99983.16;6323898;28;20098;-71
2022/06/29 01:51:55;;;;;;;5.85;4.28;;;;;;;22.40;89.04;99980.00;6323695;28;20047;-71
2022/06/29 01:54:56;;;;;;;;;;;;;;;22.40;89.77;99972.03;6324212;28;20510;-71
2022/06/29 01:58:00;;;;;;;6.90;4.05;;;;;;;22.42;89.21;99978.00;6323719;28;19924;-71
2022/06/29 02:01:00;;;;;;;7.45;4.00;;;;;;;22.39;89.33;99978.38;6289257;28;20059;-71
2022/06/29 02:04:02;;;;;;;5.50;4.53;;;;;;;22.40;89.83;99976.53;6287885;28;20441;-71
2022/06/29 02:07:03;;;;;;;8.32;4.50;;;;;;;22.41;90.27;99975.56;6305318;28;20097;-71
2022/06/29 02:10:04;;;;;;;6.97;4.28;;;;;;;22.33;91.18;99979.88;6288847;28;20040;-70
2022/06/29 02:13:05;;;;;;;6.53;4.72;;;;;;;22.36;92.10;99975.22;6305251;28;20475;-71
2022/06/29 02:16:06;;;;;;;5.07;4.30;;;;;;;22.36;93.57;99975.22;6288398;28;20044;-71
2022/06/29 02:19:07;;;;;;;6.93;4.03;;;;;;;22.36;93.87;99967.25;6288643;28;20101;-71
2022/06/29 02:22:08;;;;;;;6.90;4.43;;;;;;;22.37;93.44;99963.59;6305100;28;20068;-71
2022/06/29 02:25:09;;;;;;;8.63;4.87;;;;;;;22.27;93.17;99969.94;6304949;28;20047;-71
2022/06/29 02:28:13;;;;;;;10.55;4.85;;;;;;;22.21;93.50;99975.09;6304985;28;20090;-71
2022/06/29 02:34:46;;;;;;;4.90;4.40;;;;;;;22.23;93.92;99967.78;6307556;28;20376;-71
2022/06/29 02:37:46;;;;;;;7.95;4.75;;;;;;;22.17;94.73;99960.47;6289792;28;20055;-71
2022/06/29 02:40:47;;;;;;;9.03;4.50;;;;;;;22.13;95.15;99957.31;6304595;28;20039;-72
2022/06/29 02:43:48;;;;;;;4.80;4.30;;;;;;;22.13;95.72;99954.66;6304356;28;20044;-71
2022/06/29 02:46:49;;;;;;;9.33;4.63;;;;;;;22.18;95.78;99949.69;6304299;28;20131;-71
2022/06/29 02:49:50;;;;;;;7.60;4.63;;;;;;;22.17;95.32;99945.34;6304502;28;20482;-71
2022/06/29 02:52:51;;;;;;;8.67;4.60;;;;;;;22.16;96.68;99957.00;6304366;28;20039;-71
2022/06/29 02:55:52;;;;;;;11.87;4.97;;;;;;;22.16;95.86;99956.19;6287718;28;20269;-71
2022/06/29 02:58:53;;;;;;;12.23;4.87;;;;;;;22.13;96.84;99941.38;6304317;28;20047;-71
2022/06/29 03:01:54;;;;;;;8.30;5.03;;;;;;;22.13;96.84;99936.94;6321987;28;20063;-71
2022/06/29 03:04:55;;;;;;;7.07;5.43;;;;;;;22.10;98.03;99941.75;6287572;28;20058;-71
2022/06/29 03:07:56;;;;;;;8.32;4.78;;;;;;;22.08;98.44;99939.25;6287688;28;20044;-71
2022/06/29 03:10:57;;;;;;;8.13;5.00;;;;;;;22.08;100.00;99936.59;6287447;28;20072;-71
2022/06/29 03:13:58;;;;;;;6.63;4.83;;;;;;;22.09;100.00;99946.25;6254236;28;20328;-71
2022/06/29 03:16:59;;;;;;;7.07;4.63;;;;;;;22.03;100.00;99946.91;6303640;28;20487;-70
2022/06/29 03:20:04;;;;;;;8.18;4.55;;;;;;;22.04;100.00;99950.41;6287232;28;20466;-71
2022/06/29 03:23:05;;;;;;;6.80;4.72;;;;;;;22.01;100.00;99953.38;6303621;28;20051;-71
2022/06/29 03:26:06;;;;;;;8.75;5.20;;;;;;;21.97;100.00;99950.25;6321594;28;20538;-71
2022/06/29 03:29:07;;;;;;;8.17;5.17;;;;;;;21.97;100.00;99957.38;6303514;28;20254;-71
2022/06/29 03:32:11;;;;;;;6.70;5.00;;;;;;;21.98;100.00;99948.41;6270276;28;20474;-71
2022/06/29 03:35:12;;;;;;;15.30;5.10;;;;;;;21.97;100.00;99950.25;6303263;28;20046;-71
2022/06/29 03:38:13;;;;;;;6.37;4.83;;;;;;;21.99;100.00;99955.38;6286575;28;20474;-71
2022/06/29 03:41:14;;;;;;;7.07;4.63;;;;;;;21.95;100.00;99957.56;6321470;28;20115;-71
2022/06/29 03:44:15;;;;;;;7.50;5.20;;;;;;;21.93;100.00;99957.72;6303241;28;20052;-71
2022/06/29 03:47:16;;;;;;;6.80;4.97;;;;;;;21.98;100.00;99956.38;6302845;28;20047;-71
2022/06/29 03:50:17;;;;;;;12.53;4.97;;;;;;;22.02;100.00;99953.22;6303035;28;20402;-71
2022/06/29 03:53:18;;;;;;;7.67;4.97;;;;;;;22.01;100.00;99943.59;6286606;28;20050;-71
2022/06/29 03:56:19;;;;;;;6.70;4.80;;;;;;;22.03;100.00;99946.91;6321010;28;20161;-71
2022/06/29 03:59:22;;;;;;;9.35;5.22;;;;;;;22.05;100.00;99952.03;6302888;28;20048;-71
2022/06/29 04:02:26;;;;;;;10.80;4.80;;;;;;;22.08;100.00;99949.88;6286571;28;20040;-71
2022/06/29 04:05:27;;;;;;;6.80;5.13;;;;;;;22.10;100.00;99949.72;6286938;28;20047;-71
2022/06/29 04:08:28;;;;;;;12.07;4.82;;;;;;;22.11;100.00;99940.72;6302899;28;20040;-71
2022/06/29 04:12:02;;;;;;;12.30;5.50;;;;;;;22.17;100.00;99941.88;6302710;28;20479;-71
2022/06/29 04:14:57;;;;;;;7.97;4.93;;;;;;;22.22;100.00;99948.34;6302777;28;20714;-71
2022/06/29 04:17:58;;;;;;;7.85;4.90;;;;;;;22.39;100.00;99943.81;6320563;28;20040;-71
2022/06/29 04:21:08;;;;;;;6.75;4.95;;;;;;;22.55;100.00;99942.91;6302575;28;20051;-71
2022/06/29 04:24:09;;;;;;;8.02;5.40;;;;;;;22.62;100.00;99943.03;6271624;28;20342;-71
2022/06/29 04:27:10;;;;;;;6.82;4.55;;;;;;;22.69;100.00;99944.00;6304115;28;20094;-71
2022/06/29 04:30:11;;;;;;;6.50;4.80;;;;;;;22.85;96.30;99938.56;6307698;28;20048;-71
2022/06/29 04:33:12;;;;;;;9.70;4.93;;;;;;;22.92;95.10;99941.38;6307897;28;20048;-71
2022/06/29 04:36:13;;;;;;;9.47;5.50;;;;;;;;;;6290749;28;20047;-71
2022/06/29 04:39:14;;;;;;;9.17;4.67;;;;;;;23.24;94.97;99947.50;6325636;28;20044;-71
2022/06/29 04:42:15;;;;;;;11.38;5.25;;;;;;;23.25;95.49;99947.31;6274154;28;20460;-71
2022/06/29 04:48:35;;;;;;;8.52;4.78;;;;;;;23.37;91.94;99953.06;6310144;28;20089;-71
2022/06/29 04:51:37;;;;;;;9.20;4.97;;;;;;;23.44;91.35;99953.16;6307168;28;20402;-71
2022/06/29 04:54:38;;;;;;;;;;;;;;;23.51;89.16;99956.75;6307603;28;20040;-72
2022/06/29 04:57:39;;;;;;;7.65;4.57;;;;;;;23.57;91.70;99956.03;6333266;28;19950;-71
2022/06/29 05:00:39;;;;;;;9.97;4.50;;;;;;;23.70;89.49;99955.38;6279162;28;20377;-71
2022/06/29 05:03:41;;;;;;;7.73;4.67;;;;;;;23.79;95.00;99940.22;6332161;28;20036;-71
2022/06/29 05:06:42;;;;;;;10.00;5.00;;;;;;;23.87;91.77;99950.78;6322725;28;20123;-71
2022/06/29 05:09:44;;;;;;;6.00;4.72;;;;;;;23.95;87.95;99956.03;6349965;28;20067;-71
2022/06/29 05:12:45;;;;;;;11.52;4.80;;;;;;;23.96;88.99;99959.50;6314963;28;20275;-71
2022/06/29 05:15:46;;;;;;;7.15;4.55;;;;;;;24.03;89.05;99952.41;6331619;28;20486;-71
2022/06/29 05:18:48;;;;;;;7.78;4.50;;;;;;;24.07;87.63;99953.72;6331524;28;20067;-71
2022/06/29 05:21:51;;;;;;;;;;;;;;;24.19;85.79;99960.22;6350166;28;20043;-71
2022/06/29 05:24:53;;;;;;;9.15;4.50;;;;;;;24.25;84.00;99969.34;6331879;28;19923;-71
2022/06/29 05:27:53;;;;;;;10.17;5.03;;;;;;;24.36;84.13;99960.88;6331291;28;20520;-71
2022/06/29 05:30:55;;;;;;;8.93;4.57;;;;;;;24.49;83.84;99974.41;6349581;28;20047;-71
2022/06/29 05:33:56;;;;;;;9.98;4.80;;;;;;;24.56;82.87;99969.16;6349388;28;20039;-72
2022/06/29 05:36:56;;;;;;;8.82;5.10;;;;;;;24.71;81.93;99982.47;6331244;28;20088;-72
2022/06/29 05:39:57;;;;;;;6.73;4.50;;;;;;;24.86;80.70;99988.59;6314213;28;20046;-71
2022/06/29 05:42:59;;;;;;;8.20;4.50;;;;;;;25.00;79.87;99981.56;6349191;28;20359;-71
2022/06/29 05:46:00;;;;;;;9.45;4.45;;;;;;;25.14;76.63;99980.69;6305678;28;20052;-71
2022/06/29 05:49:01;;;;;;;9.23;4.72;;;;;;;25.32;77.24;99971.41;6305791;28;20040;-71
2022/06/29 05:52:03;;;;;;;8.82;4.70;;;;;;;25.41;77.76;99964.94;6288794;28;20044;-71
2022/06/29 05:55:05;;;;;;;9.23;4.47;;;;;;;25.53;77.58;99967.88;6305767;28;20048;-72
2022/06/29 05:58:08;;;;;;;7.45;4.28;;;;;;;25.70;76.03;99965.78;6323677;28;20044;-71
2022/06/29 06:01:09;;;;;;;7.97;4.13;;;;;;;25.78;70.02;99960.28;6305980;28;20048;-71
2022/06/29 06:04:10;;;;;;;7.22;3.88;;;;;;;25.96;72.51;99951.78;6305442;28;20479;-71
2022/06/29 06:07:12;;;;;;;16.67;4.57;;;;;;;26.15;72.32;99958.28;6321652;28;20122;-72
2022/06/29 06:10:13;;;;;;;13.20;4.57;;;;;;;26.32;69.64;99961.44;6347497;28;20039;-71
2022/06/29 06:13:14;;;;;;;15.07;4.40;;;;;;;26.45;68.34;99968.69;6347453;28;20071;-72
2022/06/29 06:16:15;;;;;;;10.45;3.97;;;;;;;26.56;71.18;99962.75;6330398;28;20036;-72
2022/06/29 06:19:16;;;;;;;4.95;3.97;;;;;;;26.71;64.54;99962.66;6347332;28;20039;-72
2022/06/29 06:22:17;;;;;;;8.93;3.95;;;;;;;26.90;68.39;99966.41;6330295;28;20447;-72
2022/06/29 06:25:20;;;;;;;8.02;4.47;;;;;;;27.00;68.68;99961.47;6330206;28;20051;-71
2022/06/29 06:28:21;;;;;;;6.50;4.10;;;;;;;27.18;62.84;99960.91;6348097;28;20036;-71
2022/06/29 06:31:22;;;;;;;9.68;3.97;;;;;;;27.35;61.83;99966.72;6347014;28;20046;-72
2022/06/29 06:34:23;;;;;;;7.53;3.90;;;;;;;27.51;59.05;99968.16;6313194;28;20063;-72
2022/06/29 06:37:24;;;;;;;10.65;4.97;;;;;;;27.64;59.94;99970.00;6346986;28;20418;-71
2022/06/29 06:43:44;;;;;;;19.38;4.03;;;;;;;27.86;58.44;99974.13;6332379;28;20043;-72
2022/06/29 06:46:48;;;;;;;10.43;3.70;;;;;;;28.03;55.97;99969.16;6329468;28;20050;-72
2022/06/29 06:49:49;;;;;;;12.52;3.90;;;;;;;28.22;53.87;99970.13;6346052;28;20036;-72
2022/06/29 06:52:50;;;;;;;13.20;4.07;;;;;;;28.42;53.31;99970.06;6346399;28;20088;-71
2022/06/29 06:55:51;;;;;;;15.35;3.72;;;;;;;28.62;55.04;99969.16;6329639;28;20084;-71
2022/06/29 06:58:52;;;;;;;9.07;3.83;;;;;;;28.77;53.04;99967.03;6329440;28;20534;-71
2022/06/29 07:01:53;;;;;;;10.15;3.88;;;;;;;28.94;57.46;99968.16;6329459;28;20039;-71
2022/06/29 07:04:54;;;;;;;8.73;3.50;;;;;;;29.00;53.95;99963.78;6329277;28;20458;-71
2022/06/29 07:07:54;;;;;;;11.50;3.58;;;;;;;29.24;53.48;99970.28;6329277;28;20434;-72
2022/06/29 07:10:55;;;;;;;11.27;3.28;;;;;;;29.45;53.18;99966.38;6316282;28;20032;-72
2022/06/29 07:13:56;;;;;;;10.35;3.50;;;;;;;29.56;49.41;99966.72;6287024;28;20047;-71
2022/06/29 07:16:57;;;;;;;7.03;3.13;;;;;;;29.56;48.53;99967.53;6303616;28;20478;-71
2022/06/29 07:19:58;;;;;;;11.15;3.20;;;;;;;29.91;49.49;99970.53;6303700;28;20075;-72
2022/06/29 07:22:59;;;;;;;8.10;3.60;;;;;;;30.12;47.27;99980.06;6303628;28;20487;-72
2022/06/29 07:26:00;;;;;;;12.82;3.28;;;;;;;30.25;44.35;99972.84;6303650;28;20036;-72
2022/06/29 07:29:01;;;;;;;7.22;3.33;;;;;;;30.39;45.75;99976.25;6286835;28;20074;-71
2022/06/29 07:32:02;;;;;;;13.23;3.15;;;;;;;30.41;44.57;99976.84;6303424;28;20040;-71
2022/06/29 07:35:03;;;;;;;;;;;;;;;30.49;47.45;99979.22;6270993;28;20047;-72
2022/06/29 07:38:05;;;;;;;8.98;3.60;;;;;;;30.60;46.51;99983.84;6320228;28;19920;-71
2022/06/29 07:41:06;;;;;;;11.88;3.63;;;;;;;30.63;47.27;99978.00;6303412;28;20043;-71
2022/06/29 07:44:07;;;;;;;11.63;3.92;;;;;;;30.76;44.80;99974.31;6303090;28;20455;-71
2022/06/29 07:47:08;;;;;;;11.85;3.47;;;;;;;30.87;47.95;99972.72;6286122;28;20055;-72
2022/06/29 07:50:11;;;;;;;20.70;4.13;;;;;;;30.92;49.09;99981.78;6320744;28;20478;-72
2022/06/29 07:53:12;;;;;;;17.67;3.78;;;;;;;30.81;45.60;99971.75;6346292;28;20046;-72
2022/06/29 07:56:13;;;;;;;11.85;3.70;;;;;;;30.96;42.96;99978.63;6328118;28;20044;-72
2022/06/29 07:59:14;;;;;;;;;;;;;;;31.46;45.17;99987.22;6311702;28;20081;-72
2022/06/29 08:02:15;;;;;;;9.63;3.92;;;;;;;31.82;45.12;99976.44;6341558;28;19920;-71
2022/06/29 08:05:16;;;;;;;12.98;3.17;;;;;;;31.82;41.83;99976.44;6269573;28;20051;-72
2022/06/29 08:08:17;;;;;;;;;;;;;;;31.85;39.88;99974.06;6303125;28;20044;-71
2022/06/29 08:11:18;;;;;;;15.15;3.30;;;;;;;31.91;42.35;99978.53;6307745;28;20294;-72
2022/06/29 08:14:18;;;;;;;;;;;;;;;32.07;41.57;99974.31;6333286;28;20371;-72
2022/06/29 08:17:20;;;;;;;7.33;3.00;;;;;;;32.18;39.26;99969.94;6332314;28;20002;-71
2022/06/29 08:20:22;;;;;;;10.85;2.70;;;;;;;32.42;40.02;99970.72;6333500;28;20050;-71
2022/06/29 08:23:23;;;;;;;11.25;3.55;;;;;;;32.71;40.70;99971.56;6307252;28;20115;-72
2022/06/29 08:26:23;;;;;;;;;;;;;;;33.09;37.97;99970.13;6294985;28;20043;-71
2022/06/29 08:29:24;;;;;;;13.43;3.28;;;;;;;33.10;37.22;99960.94;6327514;28;20331;-72
2022/06/29 08:32:25;;;;;;;;;;;;;;;33.29;39.33;99964.22;6319385;28;20037;-71
2022/06/29 08:35:27;;;;;;;9.80;3.35;;;;;;;33.49;39.49;99961.03;6302301;28;19927;-71
2022/06/29 08:38:28;;;;;;;11.95;3.53;;;;;;;33.23;37.43;99956.28;6304763;28;20051;-72
2022/06/29 08:41:30;;;;;;;19.38;3.58;;;;;;;33.24;37.63;99956.03;6294045;28;20047;-72
2022/06/29 08:44:38;;;;;;;10.55;3.20;;;;;;;33.38;39.02;99953.00;6321577;28;20052;-72
2022/06/29 08:47:41;;;;;;;6.13;2.53;;;;;;;33.83;36.32;99952.06;6293802;28;20495;-69
2022/06/29 08:50:48;;;;;;;8.50;2.78;;;;;;;33.95;34.39;99951.97;6293960;28;20487;-69
2022/06/29 08:53:51;;;;;;;10.50;2.40;;;;;;;34.23;35.20;99959.13;6295198;28;20411;-69
2022/06/29 08:56:56;;;;;;;7.63;2.88;;;;;;;34.45;33.23;99950.97;6295338;28;20045;-70
2022/06/29 08:59:57;;;;;;;8.23;2.65;;;;;;;34.60;33.75;99953.84;6319618;28;20047;-70
2022/06/29 09:02:59;;;;;;;8.55;2.80;;;;;;;34.54;34.05;99946.75;6308964;28;20040;-70
2022/06/29 09:06:01;;;;;;;4.47;2.40;;;;;;;34.70;33.08;99958.59;6318890;28;20506;-69
2022/06/29 09:09:02;;;;;;;13.43;2.80;;;;;;;34.75;33.55;99957.81;6319057;28;20093;-69
2022/06/29 09:12:05;;;;;;;9.18;3.10;;;;;;;34.83;32.95;99955.47;6277635;28;20032;-70
2022/06/29 09:15:12;;;;;;;6.22;2.42;;;;;;;34.60;32.52;99951.13;6306256;28;20487;-70
2022/06/29 09:18:42;;;;;;;12.65;2.83;;;;;;;34.63;33.43;99952.50;6323407;28;20521;-69
2022/06/29 09:21:54;;;;;;;8.00;2.97;;;;;;;34.81;32.98;99948.66;6321061;28;20529;-70
2022/06/29 09:24:55;;;;;;;6.43;2.45;;;;;;;34.65;31.77;99943.09;6323349;28;20055;-70
2022/06/29 09:27:56;;;;;;;3.60;2.40;;;;;;;35.17;32.71;99947.13;6323137;28;20040;-70
2022/06/29 09:31:01;;;;;;;4.50;2.40;;;;;;;34.97;32.52;99949.63;6324455;28;20493;-70
2022/06/29 09:34:19;;;;;;;9.13;2.70;;;;;;;34.86;32.00;99946.84;6324502;28;20055;-70
2022/06/29 09:37:23;;;;;;;5.55;2.20;;;;;;;35.27;31.18;99946.38;6323086;28;20044;-70
2022/06/29 09:40:24;;;;;;;6.82;2.92;;;;;;;35.32;33.08;99941.00;6322959;28;20044;-70
2022/06/29 09:43:26;;;;;;;8.27;2.60;;;;;;;35.50;32.20;99939.75;6322722;28;20047;-70
2022/06/29 09:46:30;;;;;;;5.22;2.35;;;;;;;35.51;31.09;99931.34;6336424;28;20072;-71
2022/06/29 09:49:38;;;;;;;13.70;2.75;;;;;;;35.58;31.78;99930.28;6349249;28;20036;-70
2022/06/29 09:52:39;;;;;;;14.20;2.83;;;;;;;35.76;32.82;99929.88;6331098;28;20040;-71
2022/06/29 09:55:40;;;;;;;7.43;2.70;;;;;;;35.89;30.12;99924.00;6330996;28;20505;-71
2022/06/29 09:58:45;;;;;;;4.13;2.20;;;;;;;36.02;29.03;99916.44;6331173;28;20474;-71
2022/06/29 10:05:07;;;;;;;8.43;2.53;;;;;;;35.75;30.74;99914.69;6348962;28;20070;-70
2022/06/29 10:08:11;;;;;;;9.45;2.40;;;;;;;35.91;31.60;99916.41;6330578;28;20373;-70
2022/06/29 10:15:22;;;;;;;5.65;2.15;;;;;;;36.20;29.42;99901.59;6348750;28;20059;-71
2022/06/29 10:18:57;;;;;;;4.70;2.20;;;;;;;36.43;30.73;99906.56;6330155;28;20046;-71
2022/06/29 10:21:59;;;;;;;10.95;2.80;;;;;;;36.70;31.22;99909.06;6330425;28;20104;-70
2022/06/29 10:25:09;;;;;;;4.32;2.55;;;;;;;37.03;30.99;99911.53;6329528;28;20108;-71
2022/06/29 10:28:18;;;;;;;7.40;2.58;;;;;;;36.66;28.42;99907.97;6348345;28;20589;-70
2022/06/29 10:31:54;;;;;;;3.10;2.30;;;;;;;36.41;28.60;99902.47;6330147;28;20123;-71
2022/06/29 10:35:07;;;;;;;3.95;2.65;;;;;;;36.91;28.30;99895.47;6347998;28;20096;-70
2022/06/29 10:38:08;;;;;;;8.48;2.22;;;;;;;37.17;27.54;99899.03;6348255;28;20112;-71
2022/06/29 10:43:07;;;;;;;3.53;2.08;;;;;;;37.21;27.78;99885.69;6329878;28;20375;-71
2022/06/29 10:45:05;;;;;;;6.45;2.40;;;;;;;37.49;29.54;99882.34;6348165;28;20421;-70
2022/06/29 10:48:07;;;;;;;5.10;2.38;;;;;;;37.68;29.69;99887.22;6327155;28;20040;-70
2022/06/29 10:51:11;;;;;;;8.68;2.50;;;;;;;37.74;30.53;99890.75;6326877;28;20051;-71
2022/06/29 10:54:26;;;;;;;7.85;2.50;;;;;;;37.48;31.00;99880.75;6320858;28;20088;-71
2022/06/29 10:57:27;;;;;;;5.80;2.42;;;;;;;37.35;27.39;99866.91;6306498;28;20048;-71
2022/06/29 11:00:29;;;;;;;8.93;2.78;;;;;;;37.47;27.28;99868.22;6313038;28;20606;-70
2022/06/29 11:03:33;;;;;;;6.15;2.80;;;;;;;37.70;28.88;99883.16;6329597;28;20104;-71
2022/06/29 11:13:23;;;;;;;13.88;2.47;;;;;;;37.50;27.28;99854.06;6347262;28;20127;-71
2022/06/29 11:16:29;;;;;;;4.50;2.75;;;;;;;37.76;30.38;99853.19;6328760;28;20199;-71
2022/06/29 11:19:36;;;;;;;6.03;2.33;;;;;;;37.78;27.56;99840.09;6347027;28;20039;-71
2022/06/29 11:22:48;;;;;;;10.82;2.38;;;;;;;38.16;28.88;99841.28;6312570;28;20044;-71
2022/06/29 11:25:52;;;;;;;5.32;2.53;;;;;;;38.04;30.65;99833.47;6346913;28;20115;-71
2022/06/29 11:28:53;;;;;;;8.05;2.80;;;;;;;38.29;25.04;99835.19;6346699;28;20032;-70
2022/06/29 11:32:00;;;;;;;6.00;2.33;;;;;;;38.35;29.44;99835.19;6311807;28;20043;-71
2022/06/29 11:35:01;;;;;;;4.82;2.53;;;;;;;38.54;28.85;99832.59;6311334;28;20070;-71
2022/06/29 11:38:04;;;;;;;8.25;2.40;;;;;;;38.53;29.27;99829.06;6346436;28;20413;-71
2022/06/29 11:41:25;;;;;;;7.15;2.20;;;;;;;38.42;29.22;99824.75;6311572;28;20077;-71
2022/06/29 11:44:28;;;;;;;10.52;2.70;;;;;;;38.46;27.16;99817.63;6346434;28;20382;-71
2022/06/29 11:47:28;;;;;;;11.48;2.50;;;;;;;38.40;25.62;99822.31;6328000;28;20059;-71
2022/06/29 11:50:29;;;;;;;5.70;2.70;;;;;;;38.55;26.35;99810.53;6311252;28;20079;-71
2022/06/29 11:53:39;;;;;;;12.52;2.60;;;;;;;38.00;29.89;99816.03;6311277;28;20039;-70
2022/06/29 11:56:46;;;;;;;6.25;2.33;;;;;;;37.33;27.90;99810.03;6319187;28;20108;-71
2022/06/29 11:59:47;;;;;;;5.57;2.30;;;;;;;36.48;28.49;99811.47;6346306;28;20050;-71
2022/06/29 12:02:57;;;;;;;4.35;2.33;;;;;;;36.07;28.98;99808.66;6327973;28;20036;-70
2022/06/29 12:05:59;;;;;;;5.27;2.50;;;;;;;36.60;27.23;99803.03;6339013;28;20051;-71
2022/06/29 12:09:01;;;;;;;9.32;2.50;;;;;;;36.94;26.25;99791.63;6320766;28;20040;-71
2022/06/29 12:12:02;;;;;;;4.35;2.10;;;;;;;37.48;29.16;99787.41;6286297;28;20089;-71
2022/06/29 12:15:08;;;;;;;8.35;2.30;;;;;;;37.53;25.65;99781.94;6279142;28;20044;-71
2022/06/29 12:18:08;;;;;;;4.55;2.22;;;;;;;37.60;24.84;99779.78;6275055;28;20044;-71
2022/06/29 12:21:09;;;;;;;8.10;2.38;;;;;;;36.91;27.87;99778.59;6346704;28;20051;-71
2022/06/29 12:24:10;;;;;;;9.48;2.10;;;;;;;36.41;27.75;99782.97;6346915;28;20100;-70
2022/06/29 12:27:11;;;;;;;9.32;2.45;;;;;;;35.91;29.46;99774.44;6328618;28;20039;-70
2022/06/29 12:30:12;;;;;;;4.00;2.13;;;;;;;35.54;28.10;99777.28;6311699;28;20071;-70
2022/06/29 12:33:13;;;;;;;3.63;2.40;;;;;;;35.31;26.72;99780.19;6287883;28;20059;-70
2022/06/29 12:36:17;;;;;;;5.38;2.17;;;;;;;35.60;27.72;99762.66;6338172;28;20486;-70
2022/06/29 12:39:19;;;;;;;10.25;2.05;;;;;;;35.44;29.11;99773.44;6305861;28;20078;-70
2022/06/29 12:42:21;;;;;;;2.58;2.00;;;;;;;35.17;29.58;99773.59;6269353;28;20039;-70
2022/06/29 12:45:24;;;;;;;6.47;2.05;;;;;;;34.94;31.22;99772.06;6323399;28;20059;-70
2022/06/29 12:48:27;;;;;;;7.25;2.40;;;;;;;35.02;28.71;99771.56;6304454;28;20040;-70
2022/06/29 12:51:30;;;;;;;5.07;2.30;;;;;;;35.63;29.11;99764.84;6307332;28;20070;-70
2022/06/29 12:54:33;;;;;;;4.53;2.20;;;;;;;36.10;29.15;99761.19;6299623;28;20131;-70
2022/06/29 12:57:34;;;;;;;6.53;2.63;;;;;;;36.43;27.85;99761.78;6290801;28;20097;-70
2022/06/29 13:00:36;;;;;;;4.32;2.20;;;;;;;36.11;27.86;99760.06;6290784;28;20439;-70
2022/06/29 13:03:37;;;;;;;6.65;2.75;;;;;;;35.91;27.92;99758.13;6315746;28;20566;-70
2022/06/29 13:06:38;;;;;;;5.68;2.30;;;;;;;36.21;27.48;99753.88;6350517;28;20048;-70
2022/06/29 13:09:38;;;;;;;4.45;2.30;;;;;;;36.20;25.78;99754.94;6332156;28;20493;-71
2022/06/29 13:12:40;;;;;;;5.28;2.00;;;;;;;36.02;25.99;99748.94;6315175;28;20044;-71
2022/06/29 13:15:41;;;;;;;4.97;2.40;;;;;;;36.48;27.57;99748.97;6315011;28;20078;-71
2022/06/29 13:18:41;;;;;;;6.72;2.15;;;;;;;36.45;28.56;99751.44;6314902;28;20039;-70
2022/06/29 13:21:42;;;;;;;3.00;2.10;;;;;;;36.48;28.60;99742.72;6314955;28;20067;-71
2022/06/29 13:24:43;;;;;;;3.90;2.22;;;;;;;36.56;26.26;99736.75;6349871;28;20401;-70
2022/06/29 13:27:44;;;;;;;5.65;2.10;;;;;;;36.45;27.92;99741.38;6349736;28;20401;-71
2022/06/29 13:30:45;;;;;;;5.45;2.22;;;;;;;36.24;26.67;99735.16;6314694;28;20052;-71
2022/06/29 13:33:46;;;;;;;8.77;2.55;;;;;;;36.41;27.61;99734.06;6314802;28;20134;-70
2022/06/29 13:36:47;;;;;;;7.13;2.17;;;;;;;36.30;27.49;99727.78;6314642;28;20453;-71
2022/06/29 13:39:49;;;;;;;4.32;2.40;;;;;;;36.00;28.10;99717.72;6344538;28;20124;-70
2022/06/29 13:42:50;;;;;;;4.28;2.13;;;;;;;35.96;29.25;99719.34;6326391;28;20046;-70
2022/06/29 13:45:51;;;;;;;3.28;2.10;;;;;;;36.11;25.55;99714.72;6300261;28;20418;-70
2022/06/29 13:48:52;;;;;;;5.85;2.30;;;;;;;36.26;27.82;99710.41;6286986;28;20372;-70
2022/06/29 13:51:52;;;;;;;2.25;2.05;;;;;;;36.33;27.38;99708.25;6313378;28;20031;-70
2022/06/29 13:54:53;;;;;;;6.47;2.30;;;;;;;36.31;27.15;99711.22;6349074;28;20459;-71
2022/06/29 13:57:54;;;;;;;5.13;2.50;;;;;;;36.33;25.55;99707.44;6348892;28;20547;-71
2022/06/29 14:00:55;;;;;;;4.15;2.30;;;;;;;36.07;27.58;99710.94;6296239;28;20097;-70
2022/06/29 14:03:57;;;;;;;7.78;2.38;;;;;;;36.00;26.58;99701.44;6330797;28;20084;-70
2022/06/29 14:06:58;;;;;;;6.25;2.10;;;;;;;35.91;26.37;99701.13;6305939;28;20063;-70
2022/06/29 14:09:59;;;;;;;9.68;2.33;;;;;;;35.81;27.31;99693.81;6288829;28;20142;-70
2022/06/29 14:13:00;;;;;;;6.20;2.20;;;;;;;35.82;28.08;99695.44;6288879;28;20550;-70
2022/06/29 14:16:02;;;;;;;9.40;2.38;;;;;;;35.82;25.84;99690.00;6288782;28;20040;-70
2022/06/29 14:19:03;;;;;;;6.53;2.30;;;;;;;35.85;26.82;99694.91;6305270;28;20040;-71
2022/06/29 14:22:05;;;;;;;5.35;2.25;;;;;;;35.84;28.21;99695.97;6288441;28;20109;-70
2022/06/29 14:25:09;;;;;;;14.82;2.47;;;;;;;35.91;26.36;99688.41;6305064;28;20092;-71
2022/06/29 14:28:10;;;;;;;4.43;2.15;;;;;;;35.72;26.42;99682.66;6304769;28;20410;-70
2022/06/29 14:31:11;;;;;;;4.78;2.28;;;;;;;35.62;27.95;99676.38;6288857;28;20063;-70
2022/06/29 14:34:12;;;;;;;6.65;2.10;;;;;;;35.67;27.77;99671.81;6313284;28;20459;-70
2022/06/29 14:37:13;;;;;;;5.13;2.20;;;;;;;35.58;26.47;99665.25;6312920;28;20056;-70
2022/06/29 14:40:14;;;;;;;7.40;2.08;;;;;;;35.46;25.48;99660.09;6312857;28;20371;-70
2022/06/29 14:43:17;;;;;;;4.72;2.20;;;;;;;35.43;26.57;99655.19;6329784;28;20079;-70
2022/06/29 14:46:18;;;;;;;5.43;2.20;;;;;;;35.48;27.14;99648.94;6324355;28;20055;-70